Benjamin Constant, Brazil
Current Conditions -  °F | °C
As of 4:00 PM on Wednesday 26 Nov 2014 (Local Time) from SKLT Reporting Station
Drizzle Drizzle  
Wind Chill: 77°   Ceiling: 8000
Heat Index: 78°   Visibility: 5mi
Dew Point: 75°   Wind: 0mph
Humidity: 94%   Direction: NA
Pressure: 29.8"   Gusts: NA
Location:  4.38°S, 70.03°W
Report Text: SKLT 262000Z 00000KT 8000 -DZ SCT009 OVC080 25/24 A2980
Loading
Personal Weather Stations






























Interactive Weather Map New forecast layout! Learn more

10-Day Weather Forecast

Advertisements
Track Severe Weather on mobile